Time;durP1;ratioP1;P1;durP2;ratioP2;P2;SDS_P1;SDS_P2;PMS_P1;PMS_P2;Temp;Humidity;BMP_temperature;BMP_pressure;BME280_temperature;BME280_humidity;BME280_pressure;Samples;Min_cycle;Max_cycle;Signal;HPM_P1;HPM_P2
2020/12/14 00:01:03;;;;;;;18.35;9.33;;;;;;;14.62;57.87;154959.69;1638037;86;21300;-64
2020/12/14 00:03:36;;;;;;;19.48;9.90;;;;;;;14.60;57.76;154954.41;1635177;86;21257;-64
2020/12/14 00:06:10;;;;;;;18.07;9.08;;;;;;;14.59;57.82;154953.12;1617972;87;21190;-64
2020/12/14 00:08:42;;;;;;;18.20;10.08;;;;;;;14.62;57.79;154959.69;1687151;83;21833;-64
2020/12/14 00:11:15;;;;;;;18.75;9.80;;;;;;;14.62;58.02;154959.69;1628842;86;21246;-65
2020/12/14 00:13:49;;;;;;;20.12;10.32;;;;;;;14.61;57.83;154957.05;1625342;87;21361;-65
2020/12/14 00:16:23;;;;;;;24.85;10.78;;;;;;;14.59;57.98;154951.78;1632825;86;21368;-65
2020/12/14 00:18:59;;;;;;;20.90;10.28;;;;;;;14.57;58.09;154946.56;1635970;86;21243;-65
2020/12/14 00:21:35;;;;;;;21.45;10.05;;;;;;;14.60;57.93;154954.41;1635061;86;21333;-62
2020/12/14 00:24:08;;;;;;;21.25;10.35;;;;;;;14.59;58.00;154951.78;1636745;86;21307;-63
2020/12/14 00:26:53;;;;;;;17.40;9.48;;;;;;;14.59;58.00;154953.12;1636321;87;21289;-64
2020/12/14 00:29:35;;;;;;;17.37;10.03;;;;;;;14.55;57.84;154941.30;1644628;85;21730;-63
2020/12/14 00:32:07;;;;;;;20.82;9.98;;;;;;;14.55;58.00;154941.30;1632066;86;21772;-64
2020/12/14 00:34:40;;;;;;;25.17;11.45;;;;;;;14.55;58.01;154941.30;1629474;85;21226;-64
2020/12/14 00:37:12;;;;;;;21.00;10.75;;;;;;;14.59;57.90;154953.12;1679557;84;21411;-65
2020/12/14 00:39:45;;;;;;;19.02;9.50;;;;;;;14.57;58.65;154947.86;1671927;84;21341;-64
2020/12/14 00:42:17;;;;;;;21.07;10.23;;;;;;;14.57;58.19;154946.56;1674298;84;21216;-64
2020/12/14 00:44:50;;;;;;;19.87;9.45;;;;;;;14.57;58.03;154946.56;1680386;85;21391;-64
2020/12/14 00:47:22;;;;;;;17.25;9.73;;;;;;;14.58;58.02;154949.20;1668694;85;21760;-64
2020/12/14 00:49:55;;;;;;;18.10;8.90;;;;;;;14.58;57.92;154950.50;1663266;85;21229;-64
2020/12/14 00:52:27;;;;;;;15.78;9.83;;;;;;;14.59;57.88;154951.78;1679599;85;21295;-64
2020/12/14 00:55:00;;;;;;;16.70;10.03;;;;;;;14.55;58.00;154942.59;1660712;84;21216;-64
2020/12/14 00:57:32;;;;;;;16.50;9.08;;;;;;;14.60;57.89;154954.41;1669185;84;21352;-64
2020/12/14 01:00:04;;;;;;;21.27;9.83;;;;;;;14.57;57.86;154946.56;1660750;84;21699;-64
2020/12/14 01:02:37;;;;;;;16.23;9.35;;;;;;;14.55;58.38;154942.59;1671408;85;21280;-65
2020/12/14 01:05:10;;;;;;;19.48;9.63;;;;;;;14.58;57.95;154950.50;1656788;86;21274;-64
2020/12/14 01:07:42;;;;;;;15.32;8.90;;;;;;;14.44;57.99;154913.64;1625188;88;21248;-64
2020/12/14 01:10:14;;;;;;;19.20;9.38;;;;;;;14.35;58.32;154888.64;1675032;85;21207;-64
2020/12/14 01:12:47;;;;;;;19.52;9.28;;;;;;;14.22;58.30;154853.16;1676021;85;21251;-63
2020/12/14 01:15:21;;;;;;;14.98;8.20;;;;;;;14.11;58.60;154824.17;1689753;84;21397;-64
2020/12/14 01:17:53;;;;;;;17.20;9.88;;;;;;;14.49;58.05;154926.81;1680637;84;21362;-64
2020/12/14 01:20:26;;;;;;;19.50;9.60;;;;;;;14.49;58.21;154925.48;1686141;84;21363;-63
2020/12/14 01:22:58;;;;;;;20.90;10.10;;;;;;;14.25;58.49;154862.34;1691268;84;21441;-63
2020/12/14 01:25:31;;;;;;;18.32;9.63;;;;;;;14.48;58.26;154924.19;1688970;84;21232;-64
2020/12/14 01:28:06;;;;;;;18.15;8.75;;;;;;;14.42;58.00;154905.73;1690473;84;21358;-64
2020/12/14 01:30:38;;;;;;;17.07;8.80;;;;;;;14.31;58.40;154876.81;1691277;83;21358;-63
2020/12/14 01:33:10;;;;;;;13.88;7.85;;;;;;;14.36;58.59;154889.98;1659336;85;21240;-63
2020/12/14 01:35:42;;;;;;;17.02;8.78;;;;;;;14.24;58.50;154858.41;1638998;87;21204;-63
2020/12/14 01:38:15;;;;;;;17.55;8.35;;;;;;;14.40;58.70;154901.81;1682693;84;21208;-64
2020/12/14 01:40:47;;;;;;;18.05;8.65;;;;;;;14.13;59.53;154830.78;1670847;85;21268;-64
2020/12/14 01:43:22;;;;;;;16.93;8.13;;;;;;;14.83;58.41;155016.28;1691035;84;21853;-64
2020/12/14 01:45:53;;;;;;;16.67;8.05;;;;;;;15.20;57.25;155113.69;1689603;84;21261;-64
2020/12/14 01:48:26;;;;;;;18.35;9.20;;;;;;;15.27;56.99;155130.84;1660817;86;21940;-64
2020/12/14 01:50:58;;;;;;;14.10;8.10;;;;;;;15.27;56.83;155132.14;1664254;85;21196;-64
2020/12/14 01:53:32;;;;;;;18.80;8.93;;;;;;;15.28;56.61;155134.78;1668621;85;21703;-64
2020/12/14 01:56:04;;;;;;;19.20;9.00;;;;;;;15.26;56.63;155128.20;1678047;85;21217;-64
2020/12/14 01:58:37;;;;;;;17.85;8.80;;;;;;;15.00;56.66;155061.00;1686602;84;21445;-64
2020/12/14 02:01:10;;;;;;;18.62;8.93;;;;;;;14.59;57.83;154953.12;1690424;84;21417;-64
2020/12/14 02:03:42;;;;;;;17.32;8.80;;;;;;;14.60;57.64;154954.41;1669232;84;21527;-63
2020/12/14 02:06:14;;;;;;;20.52;9.00;;;;;;;14.61;57.60;154957.05;1664456;84;21218;-64
2020/12/14 02:08:47;;;;;;;17.73;8.88;;;;;;;15.01;56.94;155063.63;1627395;87;21241;-64
2020/12/14 02:11:19;;;;;;;15.13;8.48;;;;;;;14.29;57.97;154872.88;1639980;85;21231;-64
2020/12/14 02:13:52;;;;;;;16.12;8.70;;;;;;;14.25;58.30;154861.05;1680671;85;21417;-64
2020/12/14 02:16:24;;;;;;;16.07;8.65;;;;;;;14.67;57.63;154972.88;1673876;85;21227;-64
2020/12/14 02:18:56;;;;;;;15.85;8.38;;;;;;;14.48;58.01;154924.19;1678443;85;21244;-64
2020/12/14 02:21:29;;;;;;;15.32;7.92;;;;;;;15.26;56.70;155128.20;1675742;85;21231;-63
2020/12/14 02:24:01;;;;;;;16.60;7.58;;;;;;;14.82;57.19;155012.31;1678596;85;21758;-64
2020/12/14 02:26:34;;;;;;;16.40;7.85;;;;;;;14.68;57.46;154975.50;1664632;84;21235;-64
2020/12/14 02:29:06;;;;;;;14.80;7.95;;;;;;;14.65;57.53;154968.89;1638707;85;21266;-64
2020/12/14 02:31:39;;;;;;;15.18;7.95;;;;;;;15.29;56.52;155137.41;1654064;84;21700;-64
2020/12/14 02:34:12;;;;;;;16.07;8.03;;;;;;;14.57;57.32;154946.56;1682952;85;21788;-64
2020/12/14 02:36:44;;;;;;;15.88;8.33;;;;;;;14.50;57.91;154929.45;1673296;85;21287;-64
2020/12/14 02:39:17;;;;;;;14.13;7.62;;;;;;;14.28;58.17;154868.95;1671046;85;21219;-63
2020/12/14 02:41:49;;;;;;;15.78;8.33;;;;;;;14.59;57.64;154953.12;1685305;85;21385;-62
2020/12/14 02:44:22;;;;;;;16.35;8.30;;;;;;;14.55;57.52;154942.59;1683710;85;21357;-63
2020/12/14 02:46:54;;;;;;;15.35;8.15;;;;;;;15.02;56.88;155064.97;1643606;84;21393;-62
2020/12/14 02:49:26;;;;;;;14.85;8.20;;;;;;;15.28;56.26;155133.48;1632769;86;21251;-62
2020/12/14 02:51:59;;;;;;;14.93;8.15;;;;;;;14.93;56.37;155042.59;1662709;85;21236;-62
2020/12/14 02:54:31;;;;;;;14.33;8.23;;;;;;;14.32;57.61;154880.78;1681582;85;21906;-62
2020/12/14 02:57:03;;;;;;;16.65;8.53;;;;;;;14.35;57.77;154888.64;1669816;85;21244;-62
2020/12/14 02:59:36;;;;;;;15.78;7.70;;;;;;;14.63;57.56;154963.67;1685241;84;21358;-62
2020/12/14 03:02:08;;;;;;;16.95;9.15;;;;;;;14.98;56.83;155054.44;1670556;85;21389;-62
2020/12/14 03:04:41;;;;;;;15.35;8.30;;;;;;;15.13;56.28;155095.22;1654779;85;21275;-62
2020/12/14 03:07:13;;;;;;;13.90;7.67;;;;;;;15.00;56.45;155059.70;1658042;85;21359;-62
2020/12/14 03:09:46;;;;;;;15.13;7.60;;;;;;;15.32;56.08;155143.97;1663513;85;21367;-62
2020/12/14 03:12:18;;;;;;;16.37;8.28;;;;;;;15.40;55.81;155167.66;1614171;88;21261;-62
2020/12/14 03:14:52;;;;;;;13.62;7.45;;;;;;;15.39;55.74;155163.73;1686459;84;21360;-62
2020/12/14 03:17:24;;;;;;;14.15;7.67;;;;;;;15.39;55.70;155163.73;1686492;85;21310;-63
2020/12/14 03:19:57;;;;;;;16.90;8.58;;;;;;;15.39;55.74;155163.73;1680594;85;21274;-63
2020/12/14 03:22:30;;;;;;;13.08;7.65;;;;;;;15.37;55.77;155158.47;1681085;84;21342;-63
2020/12/14 03:25:02;;;;;;;12.23;7.10;;;;;;;15.39;55.68;155163.73;1691047;84;21220;-62
2020/12/14 03:27:34;;;;;;;15.72;7.62;;;;;;;15.39;55.60;155163.73;1682003;84;21371;-63
2020/12/14 03:30:07;;;;;;;14.58;7.72;;;;;;;15.43;55.66;155174.28;1683285;84;21219;-63
2020/12/14 03:32:40;;;;;;;13.10;7.03;;;;;;;15.47;55.65;155184.78;1664574;85;21223;-63
2020/12/14 03:35:12;;;;;;;16.65;8.68;;;;;;;15.47;55.32;155186.13;1657521;85;21240;-63
2020/12/14 03:37:45;;;;;;;17.12;7.72;;;;;;;15.42;55.31;155172.94;1669358;85;21232;-63
2020/12/14 03:40:17;;;;;;;14.50;7.95;;;;;;;14.76;56.48;154997.83;1665791;85;21771;-63
2020/12/14 03:42:50;;;;;;;15.70;8.73;;;;;;;14.68;56.71;154975.50;1679898;84;21799;-63
2020/12/14 03:45:22;;;;;;;13.35;7.80;;;;;;;14.66;56.84;154971.52;1646373;85;21273;-63
2020/12/14 03:47:55;;;;;;;13.13;7.95;;;;;;;14.66;56.76;154970.23;1642675;85;21361;-62
2020/12/14 03:50:27;;;;;;;13.08;7.50;;;;;;;14.44;57.09;154913.64;1681335;84;21235;-63
2020/12/14 03:53:00;;;;;;;13.03;7.20;;;;;;;14.33;57.28;154883.42;1664042;85;21264;-62
2020/12/14 03:55:32;;;;;;;12.55;6.97;;;;;;;14.55;57.08;154941.30;1658215;85;21216;-63
2020/12/14 03:58:04;;;;;;;12.65;6.97;;;;;;;14.91;56.42;155037.31;1654931;86;21232;-62
2020/12/14 04:00:37;;;;;;;11.33;6.35;;;;;;;15.12;56.25;155092.58;1658985;85;21354;-63
2020/12/14 04:03:10;;;;;;;9.80;5.90;;;;;;;15.36;55.71;155154.53;1653591;85;21230;-63
2020/12/14 04:05:43;;;;;;;10.80;6.20;;;;;;;15.41;55.44;155169.00;1628088;87;21245;-63
2020/12/14 04:08:15;;;;;;;9.23;6.12;;;;;;;15.41;55.59;155170.30;1662465;85;21248;-63
2020/12/14 04:10:48;;;;;;;10.55;6.15;;;;;;;15.38;55.78;155162.44;1657193;85;21295;-63
2020/12/14 04:13:21;;;;;;;10.13;5.55;;;;;;;15.38;55.40;155162.44;1681329;85;21292;-63
2020/12/14 04:15:53;;;;;;;9.95;6.35;;;;;;;15.19;55.54;155109.70;1671830;85;21365;-63
2020/12/14 04:18:26;;;;;;;10.53;6.17;;;;;;;15.13;55.66;155095.22;1684717;85;21233;-63
2020/12/14 04:20:58;;;;;;;12.20;6.72;;;;;;;15.22;55.57;155118.91;1677526;84;21327;-63
2020/12/14 04:23:31;;;;;;;11.90;6.37;;;;;;;15.16;55.63;155101.84;1661927;86;21374;-63
2020/12/14 04:26:04;;;;;;;14.07;6.55;;;;;;;15.12;55.76;155091.30;1654424;85;21339;-63
2020/12/14 04:28:37;;;;;;;13.03;6.90;;;;;;;15.15;55.77;155100.50;1668986;85;21291;-63
2020/12/14 04:31:09;;;;;;;14.47;7.10;;;;;;;15.22;55.75;155117.61;1655966;85;21224;-64
2020/12/14 04:33:42;;;;;;;12.93;7.37;;;;;;;15.07;56.15;155079.45;1665312;85;21941;-63
2020/12/14 04:36:15;;;;;;;13.00;7.22;;;;;;;14.63;56.48;154963.67;1656311;85;21747;-63
2020/12/14 04:38:47;;;;;;;13.80;7.12;;;;;;;14.35;56.84;154887.34;1675839;85;21202;-63
2020/12/14 04:41:24;;;;;;;12.13;6.72;;;;;;;14.76;56.39;154996.53;1667891;86;21278;-63
2020/12/14 04:43:57;;;;;;;12.78;7.00;;;;;;;14.15;57.22;154836.05;1665526;84;21189;-63
2020/12/14 04:46:29;;;;;;;15.70;8.40;;;;;;;14.36;57.42;154891.28;1654843;86;21236;-63
2020/12/14 04:49:05;;;;;;;15.08;7.78;;;;;;;14.32;57.46;154880.78;1632703;85;21372;-62
2020/12/14 04:51:38;;;;;;;11.95;7.08;;;;;;;14.42;57.33;154907.09;1664695;85;21208;-63
2020/12/14 04:54:11;;;;;;;12.80;7.72;;;;;;;14.47;57.41;154921.55;1675156;84;21224;-63
2020/12/14 04:56:44;;;;;;;13.03;6.95;;;;;;;14.50;57.28;154929.45;1678574;85;21358;-63
2020/12/14 04:59:16;;;;;;;12.15;6.42;;;;;;;14.48;57.31;154924.19;1664115;84;21235;-62
2020/12/14 05:01:49;;;;;;;13.62;6.10;;;;;;;14.59;57.22;154951.78;1674416;84;21881;-63
2020/12/14 05:04:21;;;;;;;12.73;6.67;;;;;;;14.60;57.01;154954.41;1634301;86;21390;-63
2020/12/14 05:06:56;;;;;;;12.95;6.55;;;;;;;14.66;56.95;154970.23;1632833;86;21257;-63
2020/12/14 05:09:29;;;;;;;12.43;6.40;;;;;;;14.54;56.88;154939.94;1672670;84;21281;-63
2020/12/14 05:12:02;;;;;;;9.78;5.62;;;;;;;14.31;57.26;154876.81;1686333;84;21279;-63
2020/12/14 05:14:35;;;;;;;10.23;6.45;;;;;;;14.29;57.30;154871.59;1655311;83;21242;-63
2020/12/14 05:17:08;;;;;;;13.13;7.22;;;;;;;14.20;57.46;154847.87;1645636;86;21353;-62
2020/12/14 05:19:40;;;;;;;12.10;7.45;;;;;;;14.54;56.97;154939.94;1646880;84;21232;-63
2020/12/14 05:22:12;;;;;;;13.83;7.62;;;;;;;14.57;56.84;154946.56;1684788;83;21373;-63
2020/12/14 05:24:52;;;;;;;14.33;8.95;;;;;;;14.28;57.09;154870.25;1687732;83;21492;-63
2020/12/14 05:27:33;;;;;;;18.30;8.73;;;;;;;14.06;57.53;154812.34;1637790;85;21212;-63
2020/12/14 05:30:15;;;;;;;15.63;7.58;;;;;;;14.26;57.40;154863.69;1659528;84;21262;-63
2020/12/14 05:32:52;;;;;;;17.67;9.33;;;;;;;14.54;57.11;154938.66;1659131;85;21763;-63
2020/12/14 05:35:35;;;;;;;15.25;7.55;;;;;;;14.76;56.55;154996.53;1610072;88;21719;-63
2020/12/14 05:38:23;;;;;;;14.50;7.78;;;;;;;14.79;56.38;155005.73;1607781;88;21743;-62
2020/12/14 05:41:02;;;;;;;14.35;8.05;;;;;;;14.79;56.38;155005.73;1682836;83;21363;-63
2020/12/14 05:43:35;;;;;;;13.00;6.78;;;;;;;14.59;56.51;154951.78;1639743;86;21254;-63
2020/12/14 05:46:15;;;;;;;17.48;7.75;;;;;;;14.48;57.03;154924.19;1632598;85;21252;-63
2020/12/14 05:48:49;;;;;;;18.75;8.13;;;;;;;14.70;56.75;154980.72;1638345;86;21265;-63
2020/12/14 05:51:24;;;;;;;15.38;7.78;;;;;;;14.56;56.87;154945.22;1646978;85;21180;-63
2020/12/14 05:53:57;;;;;;;15.70;7.37;;;;;;;14.68;56.71;154975.50;1654747;85;21224;-63
2020/12/14 05:56:29;;;;;;;17.32;8.18;;;;;;;14.86;56.36;155024.19;1663208;85;21256;-63
2020/12/14 05:59:04;;;;;;;17.12;8.65;;;;;;;14.85;57.53;155021.56;1690792;83;21229;-63
2020/12/14 06:01:37;;;;;;;15.10;7.92;;;;;;;14.68;57.16;154976.80;1694692;83;21383;-63
2020/12/14 06:04:09;;;;;;;15.32;8.78;;;;;;;14.83;56.70;155016.28;1673607;84;21197;-63
2020/12/14 06:06:47;;;;;;;13.38;8.10;;;;;;;14.90;56.55;155033.39;1672452;83;21770;-63
2020/12/14 06:09:22;;;;;;;18.25;8.88;;;;;;;14.89;56.43;155030.75;1691928;83;21893;-63
2020/12/14 06:11:54;;;;;;;16.35;8.55;;;;;;;14.87;56.45;155026.78;1682744;84;21185;-63
2020/12/14 06:14:27;;;;;;;15.58;8.45;;;;;;;14.87;56.38;155026.78;1684503;84;21240;-63
2020/12/14 06:16:59;;;;;;;14.38;8.05;;;;;;;14.75;56.67;154993.91;1687318;84;21355;-63
2020/12/14 06:19:32;;;;;;;14.80;7.95;;;;;;;14.69;56.78;154978.14;1673339;85;22178;-63
2020/12/14 06:22:07;;;;;;;14.47;8.63;;;;;;;14.75;56.72;154993.91;1665882;85;21255;-63
2020/12/14 06:24:39;;;;;;;13.28;8.10;;;;;;;14.78;56.79;155001.81;1649986;86;21210;-62
2020/12/14 06:27:11;;;;;;;14.85;8.20;;;;;;;14.79;56.80;155005.73;1663803;85;21243;-63
2020/12/14 06:29:44;;;;;;;19.75;9.08;;;;;;;14.91;56.66;155036.03;1684365;84;21287;-63
2020/12/14 06:32:39;;;;;;;22.45;9.98;;;;;;;14.80;56.74;155007.08;1650593;84;21251;-63
2020/12/14 06:35:20;;;;;;;15.93;8.53;;;;;;;14.67;57.00;154974.16;1665788;85;21205;-64
2020/12/14 06:37:57;;;;;;;18.98;9.10;;;;;;;14.77;56.88;155000.47;1623170;86;21273;-63
2020/12/14 06:40:29;;;;;;;13.95;7.87;;;;;;;14.82;56.68;155013.64;1690862;84;21236;-63
2020/12/14 06:43:01;;;;;;;15.68;7.35;;;;;;;15.04;56.48;155071.53;1678257;83;21238;-64
2020/12/14 06:45:33;;;;;;;14.93;7.35;;;;;;;15.12;56.98;155091.30;1658977;84;21392;-63
2020/12/14 06:48:06;;;;;;;14.03;7.37;;;;;;;14.99;57.23;155057.06;1659493;85;21354;-60
2020/12/14 06:50:39;;;;;;;13.10;7.95;;;;;;;14.95;56.80;155046.52;1657841;85;21335;-60
2020/12/14 06:53:41;;;;;;;14.30;8.03;;;;;;;14.86;56.77;155024.19;1648727;85;21249;-64
2020/12/14 06:56:32;;;;;;;15.05;7.62;;;;;;;14.96;56.82;155050.50;1631306;86;21359;-61
2020/12/14 06:59:28;;;;;;;12.65;7.37;;;;;;;15.00;56.68;155061.00;1674865;83;21233;-64
2020/12/14 07:02:02;;;;;;;13.20;7.60;;;;;;;15.14;56.94;155096.56;1681044;83;21405;-64
2020/12/14 07:04:39;;;;;;;15.13;8.08;;;;;;;14.97;56.57;155053.14;1637039;86;21320;-64
2020/12/14 07:07:16;;;;;;;13.55;8.50;;;;;;;14.90;56.86;155033.39;1608318;88;21273;-64
2020/12/14 07:09:48;;;;;;;14.55;8.45;;;;;;;15.00;57.14;155061.00;1631755;87;21250;-64
2020/12/14 07:12:26;;;;;;;17.35;9.75;;;;;;;15.03;57.28;155067.63;1638474;86;21401;-64
2020/12/14 07:14:58;;;;;;;18.42;10.70;;;;;;;15.01;57.11;155062.34;1661389;85;21178;-64
2020/12/14 07:17:31;;;;;;;17.75;10.32;;;;;;;14.99;56.95;155058.36;1622230;86;21320;-64
2020/12/14 07:20:04;;;;;;;22.20;11.70;;;;;;;15.00;57.02;155059.70;1671333;83;21248;-64
2020/12/14 07:22:50;;;;;;;17.82;9.20;;;;;;;14.97;56.69;155053.14;1646837;85;21859;-64
2020/12/14 07:25:25;;;;;;;18.42;8.00;;;;;;;15.02;56.68;155064.97;1686273;83;21360;-62
2020/12/14 07:27:57;;;;;;;19.00;8.18;;;;;;;14.95;56.55;155047.86;1673511;83;21731;-62
2020/12/14 07:30:30;;;;;;;15.13;7.15;;;;;;;14.91;56.50;155036.03;1679030;83;21216;-62
2020/12/14 07:33:02;;;;;;;13.10;7.50;;;;;;;14.88;56.44;155028.12;1631652;85;21306;-62
2020/12/14 07:35:35;;;;;;;11.73;7.28;;;;;;;14.77;56.79;154999.17;1670241;84;21802;-61
2020/12/14 07:38:12;;;;;;;12.47;7.25;;;;;;;14.88;56.67;155029.41;1703411;83;21343;-62
2020/12/14 07:40:44;;;;;;;15.25;7.70;;;;;;;15.05;56.83;155074.19;1716168;82;21394;-62
2020/12/14 07:43:20;;;;;;;14.15;7.78;;;;;;;15.08;56.57;155082.09;1643119;86;21256;-60
2020/12/14 07:45:53;;;;;;;13.38;8.35;;;;;;;15.13;56.50;155093.92;1675128;84;21363;-60
2020/12/14 07:48:25;;;;;;;14.18;8.03;;;;;;;15.18;56.30;155107.06;1678165;84;21415;-60
2020/12/14 07:51:01;;;;;;;13.15;7.12;;;;;;;15.18;56.32;155108.41;1663327;84;21208;-59
2020/12/14 07:53:34;;;;;;;14.80;8.63;;;;;;;15.19;56.23;155111.03;1695715;82;21188;-60
2020/12/14 07:56:06;;;;;;;11.33;7.30;;;;;;;15.17;56.11;155104.42;1679425;83;21260;-59
2020/12/14 07:58:50;;;;;;;12.85;7.42;;;;;;;15.19;55.82;155109.70;1644571;86;21349;-60
2020/12/14 08:01:23;;;;;;;27.00;13.43;;;;;;;15.10;56.15;155086.02;1687822;83;21362;-60
2020/12/14 08:04:00;;;;;;;25.72;12.23;;;;;;;15.25;56.03;155125.56;1684671;83;21514;-61
2020/12/14 08:06:33;;;;;;;28.87;13.50;;;;;;;15.30;55.88;155140.05;1698225;83;21339;-60
2020/12/14 08:09:05;;;;;;;19.30;9.18;;;;;;;15.50;55.52;155194.03;1700893;83;21432;-61
2020/12/14 08:11:38;;;;;;;15.78;8.73;;;;;;;15.45;55.43;155180.84;1675235;84;21297;-62
2020/12/14 08:14:10;;;;;;;16.50;7.83;;;;;;;15.58;55.32;155215.09;1677011;83;21256;-61
2020/12/14 08:16:47;;;;;;;12.43;7.40;;;;;;;15.56;55.19;155209.81;1659359;84;21454;-61
2020/12/14 08:19:24;;;;;;;15.20;8.05;;;;;;;15.47;56.21;155186.13;1642966;85;21258;-63
2020/12/14 08:22:12;;;;;;;17.12;9.73;;;;;;;15.47;56.78;155184.78;1623559;85;21256;-62
2020/12/14 08:25:12;;;;;;;16.35;9.45;;;;;;;15.26;56.88;155128.20;1617260;86;21390;-61
2020/12/14 08:28:05;;;;;;;14.25;7.67;;;;;;;15.28;57.82;155133.48;1652201;85;21267;-62
2020/12/14 08:30:41;;;;;;;11.35;6.20;;;;;;;15.34;60.16;155149.25;1652958;84;21260;-61
2020/12/14 08:33:31;;;;;;;11.22;6.42;;;;;;;15.43;59.91;155174.28;1645215;85;21300;-59
2020/12/14 08:36:35;;;;;;;12.23;7.47;;;;;;;15.56;60.05;155208.52;1649313;84;21281;-60
2020/12/14 08:39:27;;;;;;;11.63;6.60;;;;;;;15.51;61.17;155195.33;1648861;84;21319;-68
2020/12/14 08:42:10;;;;;;;11.60;6.85;;;;;;;15.51;61.18;155195.33;1646431;84;21840;-65
2020/12/14 08:44:58;;;;;;;10.30;5.97;;;;;;;15.38;62.12;155159.80;1617885;86;21485;-60
2020/12/14 08:48:10;;;;;;;11.05;6.10;;;;;;;15.37;62.50;155158.47;1639638;85;21267;-68
2020/12/14 08:51:27;;;;;;;9.63;5.85;;;;;;;15.55;61.31;155205.88;1647443;84;21204;-65
2020/12/14 08:54:20;;;;;;;7.62;5.08;;;;;;;15.38;61.64;155159.80;1659491;83;21445;-60
2020/12/14 08:57:03;;;;;;;7.78;5.42;;;;;;;15.29;61.32;155136.06;1666170;84;21341;-65
2020/12/14 08:59:41;;;;;;;10.23;6.25;;;;;;;15.23;60.67;155120.25;1666549;83;21616;-62
2020/12/14 09:02:18;;;;;;;11.60;6.40;;;;;;;15.23;61.12;155120.25;1673480;83;21803;-69
2020/12/14 09:04:53;;;;;;;9.55;6.10;;;;;;;15.26;60.54;155129.50;1671639;83;21409;-64
2020/12/14 09:07:25;;;;;;;9.08;6.28;;;;;;;15.32;60.17;155143.97;1678345;83;21235;-61
2020/12/14 09:10:28;;;;;;;10.05;7.15;;;;;;;15.43;59.34;155175.58;1679935;83;21228;-66
2020/12/14 09:13:35;;;;;;;9.50;6.50;;;;;;;15.42;59.35;155172.94;1663320;83;21244;-64
2020/12/14 09:16:53;;;;;;;9.45;6.20;;;;;;;15.47;58.69;155186.13;1659891;83;21223;-66
2020/12/14 09:19:34;;;;;;;10.38;6.58;;;;;;;15.25;58.49;155126.86;1664315;83;21810;-63
2020/12/14 09:22:30;;;;;;;11.88;6.87;;;;;;;15.20;58.41;155113.69;1674268;82;21719;-62
2020/12/14 09:25:32;;;;;;;14.95;8.15;;;;;;;15.27;58.32;155132.14;1672547;82;21326;-63
2020/12/14 09:28:09;;;;;;;15.95;7.78;;;;;;;15.59;57.80;155217.73;1672819;82;21327;-63
2020/12/14 09:31:03;;;;;;;13.68;7.20;;;;;;;15.63;57.14;155226.94;1672489;83;21625;-61
2020/12/14 09:33:57;;;;;;;15.95;7.95;;;;;;;15.54;57.37;155204.53;1670686;83;21831;-62
2020/12/14 09:36:45;;;;;;;13.95;8.45;;;;;;;15.71;56.87;155249.33;1668084;83;21260;-68
2020/12/14 09:39:31;;;;;;;13.62;8.10;;;;;;;15.60;56.77;155219.03;1671494;83;22134;-68
2020/12/14 09:42:12;;;;;;;14.25;7.92;;;;;;;15.56;56.52;155209.81;1668941;83;21395;-66
2020/12/14 09:44:52;;;;;;;25.75;9.38;;;;;;;15.71;56.44;155249.33;1661565;83;21279;-66
2020/12/14 09:47:25;;;;;;;16.27;9.03;;;;;;;15.89;55.96;155296.72;1670189;83;21410;-66
2020/12/14 09:49:59;;;;;;;20.17;10.05;;;;;;;15.66;56.39;155234.84;1664412;83;21427;-68
2020/12/14 09:52:31;;;;;;;14.65;7.90;;;;;;;15.66;56.13;155236.14;1619558;86;21208;-68
2020/12/14 09:55:04;;;;;;;14.85;8.83;;;;;;;15.70;55.95;155245.34;1591470;88;21230;-66
2020/12/14 09:57:36;;;;;;;13.35;8.13;;;;;;;15.65;56.13;155232.22;1598224;87;21502;-67
2020/12/14 10:00:10;;;;;;;15.30;8.68;;;;;;;15.64;55.96;155230.86;1589957;87;21821;-68
2020/12/14 10:02:44;;;;;;;13.15;7.58;;;;;;;15.48;56.04;155188.77;1626511;86;21304;-69
2020/12/14 10:05:17;;;;;;;10.93;7.58;;;;;;;15.72;55.54;155251.97;1660330;83;21934;-63
2020/12/14 10:07:51;;;;;;;16.20;9.40;;;;;;;15.74;55.66;155257.19;1639089;85;21377;-67
2020/12/14 10:10:26;;;;;;;16.80;9.40;;;;;;;15.81;55.55;155274.31;1650969;85;21374;-67
2020/12/14 10:13:01;;;;;;;19.87;9.85;;;;;;;15.73;55.56;155254.61;1637130;84;21288;-66
2020/12/14 10:15:35;;;;;;;16.35;9.30;;;;;;;15.69;55.77;155244.06;1642940;84;21290;-66
2020/12/14 10:18:09;;;;;;;17.55;9.15;;;;;;;15.54;56.15;155204.53;1617472;86;21234;-65
2020/12/14 10:20:43;;;;;;;18.57;9.35;;;;;;;15.56;56.13;155209.81;1658868;84;21335;-66
2020/12/14 10:23:16;;;;;;;14.90;8.45;;;;;;;15.58;55.86;155215.09;1649289;84;21727;-69
2020/12/14 10:25:49;;;;;;;14.83;7.90;;;;;;;15.90;55.26;155299.36;1650443;84;21302;-68
2020/12/14 10:28:22;;;;;;;15.98;9.13;;;;;;;15.94;55.03;155308.56;1656185;83;21256;-67
2020/12/14 10:30:55;;;;;;;36.10;14.78;;;;;;;15.90;54.86;155298.06;1616159;86;21193;-69
2020/12/14 10:33:29;;;;;;;188.25;79.12;;;;;;;15.86;54.84;155287.52;1663161;84;21228;-68
2020/12/14 10:36:12;;;;;;;181.07;76.50;;;;;;;15.69;54.84;155244.06;1633274;85;21189;-69
2020/12/14 10:38:46;;;;;;;85.25;39.00;;;;;;;15.59;54.94;155217.73;1653052;84;21221;-66
2020/12/14 10:41:19;;;;;;;39.80;20.95;;;;;;;15.56;55.00;155208.52;1656792;84;21787;-74
2020/12/14 10:43:51;;;;;;;41.77;22.87;;;;;;;15.61;54.90;155223.00;1655748;84;22548;-76
2020/12/14 10:46:27;;;;;;;31.42;16.57;;;;;;;15.58;55.06;155215.09;1658031;84;21281;-74
2020/12/14 10:49:00;;;;;;;18.98;11.70;;;;;;;15.64;55.07;155229.56;1653328;83;21233;-68
2020/12/14 10:51:33;;;;;;;19.02;9.55;;;;;;;15.61;55.29;155223.00;1655552;84;21648;-70
2020/12/14 10:54:05;;;;;;;16.35;9.48;;;;;;;15.62;55.29;155225.59;1656378;84;21193;-69
2020/12/14 10:56:38;;;;;;;11.57;7.45;;;;;;;15.55;55.33;155207.17;1656647;84;21355;-71
2020/12/14 10:59:10;;;;;;;9.43;6.47;;;;;;;15.65;55.48;155233.50;1650608;84;21292;-69
2020/12/14 11:01:43;;;;;;;12.78;7.25;;;;;;;15.55;55.20;155207.17;1659634;83;21206;-61
2020/12/14 11:04:19;;;;;;;11.30;6.62;;;;;;;15.20;55.66;155112.34;1656705;84;21720;-66
2020/12/14 11:06:52;;;;;;;9.78;5.95;;;;;;;15.16;55.81;155103.13;1681813;83;21692;-66
2020/12/14 11:09:24;;;;;;;12.10;6.60;;;;;;;15.18;55.70;155107.06;1671984;83;21265;-65
2020/12/14 11:11:58;;;;;;;11.60;6.60;;;;;;;15.09;55.81;155084.72;1670806;83;21315;-65
2020/12/14 11:14:32;;;;;;;11.55;7.08;;;;;;;15.39;55.26;155165.03;1673298;83;21152;-64
2020/12/14 11:17:06;;;;;;;13.43;6.92;;;;;;;15.41;55.29;155169.00;1673918;83;21680;-76
2020/12/14 11:19:39;;;;;;;11.38;6.12;;;;;;;15.45;55.32;155180.84;1674833;83;21251;-75
2020/12/14 11:22:13;;;;;;;13.60;7.33;;;;;;;15.52;55.30;155199.27;1677514;83;21267;-76
2020/12/14 11:24:51;;;;;;;20.52;9.83;;;;;;;15.56;55.34;155208.52;1674404;82;21264;-78
2020/12/14 11:27:26;;;;;;;12.65;8.70;;;;;;;15.58;55.41;155213.75;1672528;83;21970;-73
2020/12/14 11:29:59;;;;;;;10.38;6.80;;;;;;;15.44;55.44;155178.22;1665955;83;21197;-70
2020/12/14 11:32:32;;;;;;;13.68;8.05;;;;;;;15.35;55.71;155151.89;1676587;83;21275;-70
2020/12/14 11:35:06;;;;;;;16.48;9.05;;;;;;;15.44;55.54;155178.22;1676252;83;21284;-75
2020/12/14 11:37:40;;;;;;;16.45;9.23;;;;;;;15.32;55.43;155145.33;1675005;83;21336;-73
2020/12/14 11:40:14;;;;;;;30.37;14.15;;;;;;;15.35;55.73;155151.89;1675100;83;21291;-71
2020/12/14 11:42:47;;;;;;;20.70;10.45;;;;;;;15.52;55.88;155199.27;1680956;83;21351;-71
2020/12/14 11:45:19;;;;;;;13.32;7.22;;;;;;;15.66;55.84;155236.14;1678339;83;21208;-71
2020/12/14 11:47:52;;;;;;;11.43;6.92;;;;;;;15.81;55.52;155275.66;1682302;83;21834;-70
2020/12/14 11:50:25;;;;;;;9.95;6.72;;;;;;;15.61;55.53;155223.00;1681313;83;21243;-73
2020/12/14 11:52:58;;;;;;;32.25;17.57;;;;;;;15.94;55.32;155309.91;1675552;83;21739;-70
2020/12/14 11:55:31;;;;;;;21.55;12.70;;;;;;;16.06;54.94;155341.53;1682283;82;21192;-72